Time;durP1;ratioP1;P1;durP2;ratioP2;P2;SDS_P1;SDS_P2;PMS_P1;PMS_P2;Temp;Humidity;BMP_temperature;BMP_pressure;BME280_temperature;BME280_humidity;BME280_pressure;Samples;Min_cycle;Max_cycle;Signal;HPM_P1;HPM_P2
2022/10/18 00:01:49;;;;;;;;;;;13.50;99.90;;;;;;5052476;28;20286;-68
2022/10/18 00:04:14;;;;;;;;;;;13.60;99.90;;;;;;5051657;28;19917;-68
2022/10/18 00:06:40;;;;;;;;;;;13.50;99.90;;;;;;5052106;28;19916;-68
2022/10/18 00:09:05;;;;;;;;;;;13.50;99.90;;;;;;5052931;28;19916;-68
2022/10/18 00:11:31;;;;;;;;;;;13.50;99.90;;;;;;5052725;28;19959;-68
2022/10/18 00:13:57;;;;;;;;;;;14.70;99.90;;;;;;5049194;28;19917;-68
2022/10/18 00:16:22;;;;;;;;;;;13.50;99.90;;;;;;5032605;28;19971;-68
2022/10/18 00:18:48;;;;;;;;;;;13.60;99.90;;;;;;5032888;28;20363;-68
2022/10/18 00:21:15;;;;;;;;;;;13.60;99.90;;;;;;5032817;28;20413;-68
2022/10/18 00:23:41;;;;;;;;;;;13.30;99.90;;;;;;5032670;28;19987;-68
2022/10/18 00:26:08;;;;;;;;;;;13.50;99.90;;;;;;5032449;28;19917;-67
2022/10/18 00:28:34;;;;;;;;;;;13.40;99.90;;;;;;5032561;28;19921;-68
2022/10/18 00:31:10;;;;;;;;;;;13.40;99.90;;;;;;5032402;28;19917;-68
2022/10/18 00:33:35;;;;;;;;;;;13.40;99.90;;;;;;5034427;28;20051;-67
2022/10/18 00:36:01;;;;;;;;;;;13.50;99.90;;;;;;5052131;28;19971;-68
2022/10/18 00:38:26;;;;;;;;;;;13.40;99.90;;;;;;5052316;28;20406;-68
2022/10/18 00:40:52;;;;;;;;;;;13.10;99.90;;;;;;5052212;28;19924;-68
2022/10/18 00:43:17;;;;;;;;;;;14.00;99.90;;;;;;5052160;28;19986;-67
2022/10/18 00:45:43;;;;;;;;;;;13.20;99.90;;;;;;5051852;28;19917;-68
2022/10/18 00:48:10;;;;;;;;;;;13.30;99.90;;;;;;5051691;28;19917;-68
2022/10/18 00:50:36;;;;;;;;;;;13.50;99.90;;;;;;5032130;28;20397;-67
2022/10/18 00:53:08;;;;;;;;;;;13.30;99.90;;;;;;5031063;28;19995;-68
2022/10/18 00:55:34;;;;;;;;;;;13.30;99.90;;;;;;5032112;28;19924;-68
2022/10/18 00:58:00;;;;;;;;;;;13.60;99.90;;;;;;5032676;28;19925;-67
2022/10/18 01:00:25;;;;;;;;;;;13.40;99.90;;;;;;5032174;28;19917;-67
2022/10/18 01:02:51;;;;;;;;;;;13.20;99.90;;;;;;5032339;28;19917;-69
2022/10/18 01:05:17;;;;;;;;;;;13.40;99.90;;;;;;5040464;28;19917;-70
2022/10/18 01:07:55;;;;;;;;;;;13.40;99.90;;;;;;5050180;28;20391;-69
2022/10/18 01:10:27;;;;;;;;;;;12.90;99.90;;;;;;5051798;28;19966;-69
2022/10/18 01:13:01;;;;;;;;;;;13.10;99.90;;;;;;5052140;28;20338;-69
2022/10/18 01:15:32;;;;;;;;;;;12.80;99.90;;;;;;5051929;28;19917;-69
2022/10/18 01:17:58;;;;;;;;;;;12.90;99.90;;;;;;5051950;28;19928;-68
2022/10/18 01:20:30;;;;;;;;;;;13.10;99.90;;;;;;5051765;28;19917;-69
2022/10/18 01:23:07;;;;;;;;;;;12.90;99.90;;;;;;5048109;28;19939;-69
2022/10/18 01:25:40;;;;;;;;;;;13.20;99.90;;;;;;5031963;28;19924;-68
2022/10/18 01:28:12;;;;;;;;;;;13.00;99.90;;;;;;5032059;28;19917;-69
2022/10/18 01:30:57;;;;;;;;;;;13.30;99.90;;;;;;5030938;28;19917;-69
2022/10/18 01:33:36;;;;;;;;;;;13.30;99.90;;;;;;5031713;28;19924;-69
2022/10/18 01:36:06;;;;;;;;;;;13.10;99.90;;;;;;5031563;28;19924;-69
2022/10/18 01:38:32;;;;;;;;;;;13.30;99.90;;;;;;5031897;28;19921;-69
2022/10/18 01:40:59;;;;;;;;;;;13.10;99.90;;;;;;5031849;28;20057;-69
2022/10/18 01:43:25;;;;;;;;;;;13.10;99.90;;;;;;5031799;28;20075;-69
2022/10/18 01:45:52;;;;;;;;;;;13.30;99.90;;;;;;5031446;28;19924;-69
2022/10/18 01:48:18;;;;;;;;;;;13.50;99.90;;;;;;5031455;28;19971;-71
2022/10/18 01:50:44;;;;;;;;;;;13.00;99.90;;;;;;5031269;28;19917;-68
2022/10/18 01:53:26;;;;;;;;;;;13.30;99.90;;;;;;5031839;28;20294;-69
2022/10/18 01:55:55;;;;;;;;;;;12.90;99.90;;;;;;5032970;28;19917;-69
2022/10/18 01:58:26;;;;;;;;;;;12.80;99.90;;;;;;5046375;28;20352;-69
2022/10/18 02:00:59;;;;;;;;;;;13.20;99.90;;;;;;5054887;28;20382;-69
2022/10/18 02:03:26;;;;;;;;;;;13.10;99.90;;;;;;5054646;28;20429;-71
2022/10/18 02:06:18;;;;;;;;;;;13.10;99.90;;;;;;5051159;28;20401;-69
2022/10/18 02:08:51;;;;;;;;;;;13.00;99.90;;;;;;5004424;28;20378;-69
2022/10/18 02:11:17;;;;;;;;;;;13.30;99.90;;;;;;5036134;28;19959;-69
2022/10/18 02:13:48;;;;;;;;;;;13.90;99.90;;;;;;5034274;28;19970;-69
2022/10/18 02:16:26;;;;;;;;;;;13.00;99.90;;;;;;5034098;28;20382;-69
2022/10/18 02:19:07;;;;;;;;;;;13.20;99.90;;;;;;5034481;28;19917;-69
2022/10/18 02:21:33;;;;;;;;;;;13.30;99.90;;;;;;5034809;28;19967;-69
2022/10/18 02:24:00;;;;;;;;;;;13.20;99.90;;;;;;5034844;28;19917;-69
2022/10/18 02:26:26;;;;;;;;;;;13.10;99.90;;;;;;5034556;28;19917;-69
2022/10/18 02:28:52;;;;;;;;;;;13.30;99.90;;;;;;5034927;28;19963;-68
2022/10/18 02:31:26;;;;;;;;;;;13.00;99.90;;;;;;5034549;28;20419;-69
2022/10/18 02:34:01;;;;;;;;;;;13.30;99.90;;;;;;5034126;28;20015;-68
2022/10/18 02:36:30;;;;;;;;;;;13.10;99.90;;;;;;5034131;28;19921;-69
2022/10/18 02:39:00;;;;;;;;;;;13.20;99.90;;;;;;5034709;28;19999;-69
2022/10/18 02:41:26;;;;;;;;;;;13.00;99.90;;;;;;5043836;28;19924;-69
2022/10/18 02:43:52;;;;;;;;;;;13.10;99.90;;;;;;5054123;28;20302;-69
2022/10/18 02:46:18;;;;;;;;;;;13.80;99.90;;;;;;5054262;28;20298;-69
2022/10/18 02:48:43;;;;;;;;;;;13.30;99.90;;;;;;5054150;28;19924;-69
2022/10/18 02:51:09;;;;;;;;;;;13.20;99.90;;;;;;5054275;28;19917;-69
2022/10/18 02:53:34;;;;;;;;;;;13.30;99.90;;;;;;5054194;28;19917;-69
2022/10/18 02:56:02;;;;;;;;;;;12.90;99.90;;;;;;5053836;28;20298;-69
2022/10/18 02:58:27;;;;;;;;;;;13.10;99.90;;;;;;5054116;28;19917;-69
2022/10/18 03:00:53;;;;;;;;;;;13.10;99.90;;;;;;5053971;28;19920;-69
2022/10/18 03:03:19;;;;;;;;;;;13.00;99.90;;;;;;5054116;28;19956;-69
2022/10/18 03:05:47;;;;;;;;;;;13.10;99.90;;;;;;5053612;28;19917;-69
2022/10/18 03:08:13;;;;;;;;;;;13.60;99.90;;;;;;5053025;28;19921;-69
2022/10/18 03:10:38;;;;;;;;;;;13.10;99.90;;;;;;5053727;28;20011;-70
2022/10/18 03:13:03;;;;;;;;;;;13.00;99.90;;;;;;5053713;28;19951;-69
2022/10/18 03:15:29;;;;;;;;;;;12.90;99.90;;;;;;5046918;28;19971;-68
2022/10/18 03:17:54;;;;;;;;;;;12.90;99.90;;;;;;5033844;28;20362;-69
2022/10/18 03:20:20;;;;;;;;;;;13.10;99.90;;;;;;5033527;28;20004;-69
2022/10/18 03:22:46;;;;;;;;;;;12.90;99.90;;;;;;5033758;28;19917;-69
2022/10/18 03:25:11;;;;;;;;;;;13.00;99.90;;;;;;5033319;28;19924;-69
2022/10/18 03:27:37;;;;;;;;;;;13.20;99.90;;;;;;5033719;28;20383;-69
2022/10/18 03:30:04;;;;;;;;;;;12.80;99.90;;;;;;5032826;28;19928;-69
2022/10/18 03:32:30;;;;;;;;;;;12.70;99.90;;;;;;5033563;28;19964;-69
2022/10/18 03:34:55;;;;;;;;;;;13.00;99.90;;;;;;5037292;28;19923;-69
2022/10/18 03:37:21;;;;;;;;;;;13.10;99.90;;;;;;5053087;28;19921;-69
2022/10/18 03:39:46;;;;;;;;;;;12.80;99.90;;;;;;5052929;28;19977;-69
2022/10/18 03:42:12;;;;;;;;;;;13.00;99.90;;;;;;5052935;28;20015;-69
2022/10/18 03:44:37;;;;;;;;;;;12.60;99.90;;;;;;5050921;28;19917;-69
2022/10/18 03:47:02;;;;;;;;;;;13.00;99.90;;;;;;5053373;28;20286;-69
2022/10/18 03:49:28;;;;;;;;;;;13.30;99.90;;;;;;5050994;28;19924;-69
2022/10/18 03:51:53;;;;;;;;;;;12.60;99.90;;;;;;5033008;28;19944;-69
2022/10/18 03:54:19;;;;;;;;;;;12.80;99.90;;;;;;5032933;28;19917;-68
2022/10/18 03:56:44;;;;;;;;;;;12.80;99.90;;;;;;5033149;28;19921;-69
2022/10/18 03:59:10;;;;;;;;;;;12.50;99.90;;;;;;5032929;28;19995;-69
2022/10/18 04:01:35;;;;;;;;;;;12.40;99.90;;;;;;5033179;28;19970;-69
2022/10/18 04:04:01;;;;;;;;;;;12.70;99.90;;;;;;5032806;28;19970;-69
2022/10/18 04:06:26;;;;;;;;;;;12.60;99.90;;;;;;5033092;28;19916;-69
2022/10/18 04:08:53;;;;;;;;;;;12.30;99.90;;;;;;5032745;28;19917;-69
2022/10/18 04:11:18;;;;;;;;;;;12.40;99.90;;;;;;5032829;28;19928;-68
2022/10/18 04:13:44;;;;;;;;;;;12.70;99.90;;;;;;5032882;28;19917;-67
2022/10/18 04:16:09;;;;;;;;;;;12.40;99.90;;;;;;5032812;28;19917;-68
2022/10/18 04:18:35;;;;;;;;;;;12.50;99.90;;;;;;5032479;28;19924;-67
2022/10/18 04:21:00;;;;;;;;;;;12.60;99.90;;;;;;5044536;28;19963;-67
2022/10/18 04:23:26;;;;;;;;;;;12.60;99.90;;;;;;5052900;28;19917;-68
2022/10/18 04:25:51;;;;;;;;;;;13.40;99.90;;;;;;5051700;28;20462;-67
2022/10/18 04:28:17;;;;;;;;;;;12.60;99.90;;;;;;5052846;28;19916;-68
2022/10/18 04:30:43;;;;;;;;;;;12.40;99.90;;;;;;5052418;28;19927;-68
2022/10/18 04:33:08;;;;;;;;;;;12.00;99.90;;;;;;5052516;28;19916;-67
2022/10/18 04:35:34;;;;;;;;;;;12.40;99.90;;;;;;5051686;28;19963;-68
2022/10/18 04:37:59;;;;;;;;;;;12.50;99.90;;;;;;5052543;28;19982;-68
2022/10/18 04:40:24;;;;;;;;;;;12.40;99.90;;;;;;5052444;28;20295;-68
2022/10/18 04:42:50;;;;;;;;;;;12.50;99.90;;;;;;5052422;28;20003;-67
2022/10/18 04:45:15;;;;;;;;;;;12.40;99.90;;;;;;5052062;28;20322;-68
2022/10/18 04:47:41;;;;;;;;;;;12.30;99.90;;;;;;5052158;28;19917;-68
2022/10/18 04:50:07;;;;;;;;;;;12.10;99.90;;;;;;5052089;28;19916;-67
2022/10/18 04:52:32;;;;;;;;;;;12.10;99.90;;;;;;5051974;28;19947;-68
2022/10/18 04:54:58;;;;;;;;;;;12.20;99.90;;;;;;5052031;28;19968;-68
2022/10/18 04:57:23;;;;;;;;;;;12.20;99.90;;;;;;5052109;28;19985;-68
2022/10/18 04:59:48;;;;;;;;;;;12.60;99.90;;;;;;5052124;28;20414;-68
2022/10/18 05:02:14;;;;;;;;;;;12.00;99.90;;;;;;5050274;28;19959;-67
2022/10/18 05:04:39;;;;;;;;;;;12.40;99.90;;;;;;5051581;28;19916;-68
2022/10/18 05:07:05;;;;;;;;;;;12.40;99.90;;;;;;5052291;28;20003;-68
2022/10/18 05:09:31;;;;;;;;;;;12.10;99.90;;;;;;5051730;28;19924;-68
2022/10/18 05:11:57;;;;;;;;;;;;;;;;;;5052460;28;19923;-68
2022/10/18 05:14:22;;;;;;;;;;;12.20;99.90;;;;;;5051992;28;20404;-67
2022/10/18 05:16:48;;;;;;;;;;;12.00;99.90;;;;;;5034309;28;19924;-68
2022/10/18 05:19:13;;;;;;;;;;;12.00;99.90;;;;;;5031817;28;19917;-68
2022/10/18 05:21:39;;;;;;;;;;;11.80;99.90;;;;;;5031595;28;19921;-68
2022/10/18 05:24:04;;;;;;;;;;;11.80;99.90;;;;;;5031800;28;19917;-68
2022/10/18 05:26:30;;;;;;;;;;;11.70;99.90;;;;;;5032093;28;19916;-68
2022/10/18 05:28:56;;;;;;;;;;;11.80;99.90;;;;;;5032060;28;19917;-68
2022/10/18 05:31:21;;;;;;;;;;;11.80;99.90;;;;;;5035488;28;19962;-68
2022/10/18 05:33:47;;;;;;;;;;;11.80;99.90;;;;;;5035488;28;19917;-67
2022/10/18 05:36:12;;;;;;;;;;;11.50;99.90;;;;;;5035402;28;20279;-68
2022/10/18 05:38:41;;;;;;;;;;;12.00;99.90;;;;;;5035859;28;19917;-68
2022/10/18 05:41:07;;;;;;;;;;;11.60;99.90;;;;;;5035089;28;19917;-68
2022/10/18 05:43:32;;;;;;;;;;;11.60;99.90;;;;;;5036694;28;19916;-68
2022/10/18 05:45:58;;;;;;;;;;;11.70;99.90;;;;;;5051926;28;19923;-68
2022/10/18 05:48:23;;;;;;;;;;;11.30;99.90;;;;;;5045628;28;20015;-69
2022/10/18 05:50:49;;;;;;;;;;;11.50;99.90;;;;;;5032147;28;20389;-68
2022/10/18 05:53:15;;;;;;;;;;;;;;;;;;5032773;28;19971;-68
2022/10/18 05:55:40;;;;;;;;;;;11.60;99.90;;;;;;5031693;28;19940;-68
2022/10/18 05:58:06;;;;;;;;;;;11.40;99.90;;;;;;5033343;28;20024;-68
2022/10/18 06:00:31;;;;;;;;;;;11.40;99.90;;;;;;5032323;28;19964;-68
2022/10/18 06:02:57;;;;;;;;;;;11.30;99.90;;;;;;5033497;28;19916;-68
2022/10/18 06:05:23;;;;;;;;;;;;;;;;;;5032706;28;20310;-68
2022/10/18 06:07:49;;;;;;;;;;;11.30;99.90;;;;;;5032048;28;19917;-68
2022/10/18 06:10:14;;;;;;;;;;;11.30;99.90;;;;;;5033142;28;19921;-68
2022/10/18 06:12:39;;;;;;;;;;;11.10;99.90;;;;;;5043914;28;19921;-68
2022/10/18 06:15:06;;;;;;;;;;;11.10;99.90;;;;;;5036718;28;19917;-68
2022/10/18 06:17:31;;;;;;;;;;;11.30;99.90;;;;;;5037620;28;19920;-69
2022/10/18 06:19:56;;;;;;;;;;;11.40;99.90;;;;;;5053892;28;19917;-68
2022/10/18 06:22:22;;;;;;;;;;;11.30;99.90;;;;;;5053658;28;20010;-68
2022/10/18 06:24:47;;;;;;;;;;;11.10;99.90;;;;;;5052964;28;20025;-68
2022/10/18 06:27:13;;;;;;;;;;;11.20;99.90;;;;;;5052772;28;19920;-69
2022/10/18 06:29:39;;;;;;;;;;;;;;;;;;5053342;28;19999;-67
2022/10/18 06:32:06;;;;;;;;;;;11.20;99.90;;;;;;5044185;28;19920;-68
2022/10/18 06:34:31;;;;;;;;;;;11.30;99.90;;;;;;5050337;28;20543;-68
2022/10/18 06:36:57;;;;;;;;;;;11.00;99.90;;;;;;5061480;28;19931;-68
2022/10/18 06:39:23;;;;;;;;;;;11.20;99.90;;;;;;5058037;28;19924;-69
2022/10/18 06:41:48;;;;;;;;;;;11.10;99.90;;;;;;5059327;28;19927;-69
2022/10/18 06:44:14;;;;;;;;;;;11.10;99.90;;;;;;5048990;28;19921;-68
2022/10/18 06:46:40;;;;;;;;;;;11.00;99.90;;;;;;5037583;28;19948;-69
2022/10/18 06:49:05;;;;;;;;;;;11.00;99.90;;;;;;5055520;28;19917;-69
2022/10/18 06:51:31;;;;;;;;;;;11.00;99.90;;;;;;5058211;28;19947;-68
2022/10/18 06:53:56;;;;;;;;;;;11.00;99.90;;;;;;5072749;28;19916;-69
2022/10/18 06:56:22;;;;;;;;;;;11.30;99.90;;;;;;5074163;28;19916;-69
2022/10/18 06:58:47;;;;;;;;;;;;;;;;;;5056896;28;19955;-69
2022/10/18 07:01:14;;;;;;;;;;;;;;;;;;5042455;28;19975;-69
2022/10/18 07:03:40;;;;;;;;;;;11.10;99.90;;;;;;5042578;28;20302;-69
2022/10/18 07:06:06;;;;;;;;;;;11.10;99.90;;;;;;5041768;28;20012;-69
2022/10/18 07:08:32;;;;;;;;;;;11.00;99.90;;;;;;5042307;28;19917;-69
2022/10/18 07:10:58;;;;;;;;;;;10.90;99.90;;;;;;5041870;28;20016;-69
2022/10/18 07:13:23;;;;;;;;;;;11.00;99.90;;;;;;5042342;28;19928;-69
2022/10/18 07:15:58;;;;;;;;;;;11.00;99.90;;;;;;5041372;28;20020;-69
2022/10/18 07:18:24;;;;;;;;;;;;;;;;;;5046636;28;19936;-69
2022/10/18 07:20:50;;;;;;;;;;;11.30;99.90;;;;;;5046792;28;20011;-68
2022/10/18 07:23:15;;;;;;;;;;;11.20;99.90;;;;;;5043211;28;19962;-68
2022/10/18 07:25:41;;;;;;;;;;;11.20;99.90;;;;;;5042393;28;19924;-68
2022/10/18 07:28:06;;;;;;;;;;;11.20;99.90;;;;;;5045064;28;19920;-68
2022/10/18 07:30:32;;;;;;;;;;;11.40;99.90;;;;;;5042615;28;19979;-69
2022/10/18 07:32:58;;;;;;;;;;;11.40;99.90;;;;;;5045492;28;19963;-68
2022/10/18 07:35:23;;;;;;;;;;;11.50;99.90;;;;;;5041979;28;20027;-68
2022/10/18 07:37:49;;;;;;;;;;;11.60;99.90;;;;;;5037576;28;19921;-68
2022/10/18 07:40:14;;;;;;;;;;;11.70;99.90;;;;;;5016083;28;19924;-69
2022/10/18 07:42:40;;;;;;;;;;;11.60;99.90;;;;;;5038217;28;20371;-69
2022/10/18 07:45:06;;;;;;;;;;;;;;;;;;5038219;28;20012;-68
2022/10/18 07:47:31;;;;;;;;;;;12.00;99.90;;;;;;5039330;28;20569;-69
2022/10/18 07:49:57;;;;;;;;;;;11.80;99.90;;;;;;5044896;28;19917;-68
2022/10/18 07:52:22;;;;;;;;;;;12.00;99.90;;;;;;5043607;28;19923;-69
2022/10/18 07:54:48;;;;;;;;;;;12.00;99.90;;;;;;5031700;28;19917;-69
2022/10/18 07:57:13;;;;;;;;;;;12.30;99.90;;;;;;5035199;28;19947;-69
2022/10/18 07:59:39;;;;;;;;;;;12.10;99.90;;;;;;5043269;28;19967;-69
2022/10/18 08:02:04;;;;;;;;;;;12.20;99.90;;;;;;5032533;28;19971;-69
2022/10/18 08:04:30;;;;;;;;;;;12.60;99.90;;;;;;5044946;28;19963;-68
2022/10/18 08:06:55;;;;;;;;;;;12.40;99.90;;;;;;5042091;28;20012;-68
2022/10/18 08:09:20;;;;;;;;;;;12.70;99.90;;;;;;5044514;28;19924;-69
2022/10/18 08:11:46;;;;;;;;;;;12.70;99.90;;;;;;5068327;22;20015;-68
2022/10/18 08:14:12;;;;;;;;;;;;;;;;;;5046348;28;20302;-68
2022/10/18 08:16:38;;;;;;;;;;;;;;;;;;5050731;28;19924;-69
2022/10/18 08:19:03;;;;;;;;;;;13.00;99.90;;;;;;5051317;28;19947;-68
2022/10/18 08:21:29;;;;;;;;;;;12.80;99.90;;;;;;5040042;28;20298;-69
2022/10/18 08:23:54;;;;;;;;;;;12.90;99.90;;;;;;5046810;28;20335;-68
2022/10/18 08:26:20;;;;;;;;;;;12.80;99.90;;;;;;5048045;28;20171;-68
2022/10/18 08:28:46;;;;;;;;;;;13.10;99.90;;;;;;5033180;28;20446;-69
2022/10/18 08:31:12;;;;;;;;;;;;;;;;;;5050334;28;20164;-68
2022/10/18 08:33:38;;;;;;;;;;;12.90;99.90;;;;;;5046023;28;19964;-69
2022/10/18 08:36:05;;;;;;;;;;;13.20;99.90;;;;;;5050378;28;19943;-69
2022/10/18 08:38:31;;;;;;;;;;;13.40;99.90;;;;;;5048365;28;19921;-68
2022/10/18 08:41:20;;;;;;;;;;;13.30;99.90;;;;;;5032421;28;19927;-69
2022/10/18 08:43:46;;;;;;;;;;;;;;;;;;4985180;28;19917;-68
2022/10/18 08:46:11;;;;;;;;;;;13.70;99.90;;;;;;5032071;28;19916;-69
2022/10/18 08:48:46;;;;;;;;;;;13.60;99.90;;;;;;5031860;28;19917;-68
2022/10/18 08:51:12;;;;;;;;;;;;;;;;;;5030417;28;19963;-69
2022/10/18 08:54:01;;;;;;;;;;;13.80;99.90;;;;;;5031082;28;19917;-69
2022/10/18 08:56:27;;;;;;;;;;;13.60;99.90;;;;;;5033034;28;19916;-71
2022/10/18 08:58:52;;;;;;;;;;;;;;;;;;5030702;28;20356;-70
2022/10/18 09:01:24;;;;;;;;;;;14.00;99.90;;;;;;5030508;28;20318;-69
2022/10/18 09:04:02;;;;;;;;;;;14.20;99.90;;;;;;5030506;28;19917;-69
2022/10/18 09:06:46;;;;;;;;;;;14.00;99.90;;;;;;5034306;28;19959;-69
2022/10/18 09:09:35;;;;;;;;;;;14.10;99.90;;;;;;5047476;28;19916;-71
2022/10/18 09:12:20;;;;;;;;;;;14.20;99.90;;;;;;4986010;28;20085;-70
2022/10/18 09:14:46;;;;;;;;;;;;;;;;;;5042359;28;19944;-70
2022/10/18 09:17:12;;;;;;;;;;;;;;;;;;5049858;28;20378;-69
2022/10/18 09:19:54;;;;;;;;;;;14.30;99.90;;;;;;5049667;28;19974;-70
2022/10/18 09:22:24;;;;;;;;;;;14.40;99.90;;;;;;5050399;28;19916;-68
2022/10/18 09:25:08;;;;;;;;;;;14.30;99.90;;;;;;5051375;28;20304;-68
2022/10/18 09:27:40;;;;;;;;;;;14.40;99.90;;;;;;5050373;28;20003;-68
2022/10/18 09:30:18;;;;;;;;;;;14.50;99.90;;;;;;5049892;28;19921;-68
2022/10/18 09:32:50;;;;;;;;;;;14.60;99.90;;;;;;5051807;28;19921;-70
2022/10/18 09:35:19;;;;;;;;;;;14.60;99.90;;;;;;5050111;28;19920;-70
2022/10/18 09:37:45;;;;;;;;;;;14.80;99.90;;;;;;5051551;28;19920;-70
2022/10/18 09:40:19;;;;;;;;;;;14.80;99.90;;;;;;5051225;28;20238;-71
2022/10/18 09:42:58;;;;;;;;;;;14.90;99.90;;;;;;5049966;28;19923;-70
2022/10/18 09:45:32;;;;;;;;;;;14.60;99.90;;;;;;5043692;28;19924;-70
2022/10/18 09:47:58;;;;;;;;;;;15.00;99.90;;;;;;5030686;28;19917;-69
2022/10/18 09:50:23;;;;;;;;;;;14.90;99.90;;;;;;5030482;28;20367;-69
2022/10/18 09:52:51;;;;;;;;;;;15.20;99.90;;;;;;5030370;28;20597;-68
2022/10/18 09:55:19;;;;;;;;;;;15.10;99.90;;;;;;5030045;28;20287;-70
2022/10/18 09:57:50;;;;;;;;;;;15.30;99.90;;;;;;5030166;28;19921;-70
2022/10/18 10:00:19;;;;;;;;;;;15.10;99.90;;;;;;5032292;28;19923;-69
2022/10/18 10:02:44;;;;;;;;;;;15.20;99.90;;;;;;5048069;28;19916;-69
2022/10/18 10:05:13;;;;;;;;;;;15.20;99.90;;;;;;5049824;28;19932;-70
2022/10/18 10:07:43;;;;;;;;;;;15.50;99.90;;;;;;5049594;28;19916;-69
2022/10/18 10:10:15;;;;;;;;;;;15.30;99.90;;;;;;5039767;28;19939;-71
2022/10/18 10:12:41;;;;;;;;;;;15.10;99.90;;;;;;5031262;28;19917;-71
2022/10/18 10:15:24;;;;;;;;;;;15.10;99.90;;;;;;5013369;28;19928;-70
2022/10/18 10:17:58;;;;;;;;;;;15.40;99.90;;;;;;5033088;28;19921;-70
2022/10/18 10:20:26;;;;;;;;;;;15.70;99.90;;;;;;5035021;28;19921;-70
2022/10/18 10:22:51;;;;;;;;;;;15.30;99.90;;;;;;5034956;28;19924;-70
2022/10/18 10:25:19;;;;;;;;;;;15.60;99.90;;;;;;5033060;28;19917;-70
2022/10/18 10:27:45;;;;;;;;;;;15.70;99.90;;;;;;5034829;28;19917;-70
2022/10/18 10:30:26;;;;;;;;;;;15.40;99.90;;;;;;5034823;28;19917;-71
2022/10/18 10:32:52;;;;;;;;;;;15.30;99.90;;;;;;5033282;28;19971;-71
2022/10/18 10:35:34;;;;;;;;;;;15.50;99.90;;;;;;5034426;28;19917;-74
2022/10/18 10:37:59;;;;;;;;;;;15.50;99.90;;;;;;5052638;28;19920;-73
2022/10/18 10:40:29;;;;;;;;;;;15.60;99.90;;;;;;5048645;28;19924;-69
2022/10/18 10:43:04;;;;;;;;;;;15.70;99.90;;;;;;5043694;28;20585;-70
2022/10/18 10:45:37;;;;;;;;;;;15.60;99.90;;;;;;5050118;28;19971;-70
2022/10/18 10:48:05;;;;;;;;;;;15.90;99.90;;;;;;5046792;28;19924;-70
2022/10/18 10:50:30;;;;;;;;;;;15.90;99.90;;;;;;5057611;28;19921;-70
2022/10/18 10:52:57;;;;;;;;;;;15.90;99.90;;;;;;5045331;28;20295;-70
2022/10/18 10:55:24;;;;;;;;;;;16.30;99.90;;;;;;5049315;28;20356;-68
2022/10/18 10:57:50;;;;;;;;;;;16.10;99.90;;;;;;5042205;28;20465;-69
2022/10/18 11:00:34;;;;;;;;;;;17.30;99.90;;;;;;5051945;28;19928;-68
2022/10/18 11:03:20;;;;;;;;;;;16.60;99.90;;;;;;5053634;28;19916;-68
2022/10/18 11:05:47;;;;;;;;;;;16.20;99.90;;;;;;5051759;28;19917;-68
2022/10/18 11:08:21;;;;;;;;;;;16.70;99.90;;;;;;5053446;28;19975;-68
2022/10/18 11:11:03;;;;;;;;;;;16.40;99.90;;;;;;5050389;28;19963;-68
2022/10/18 11:13:34;;;;;;;;;;;16.40;99.90;;;;;;5053361;28;19955;-68
2022/10/18 11:16:04;;;;;;;;;;;16.20;99.90;;;;;;5052189;28;19935;-68
2022/10/18 11:18:34;;;;;;;;;;;16.40;99.90;;;;;;5053511;28;19920;-68
2022/10/18 11:21:07;;;;;;;;;;;16.60;99.90;;;;;;5051335;28;20380;-69
2022/10/18 11:23:34;;;;;;;;;;;16.20;99.90;;;;;;5034130;28;19964;-68
2022/10/18 11:26:06;;;;;;;;;;;16.40;99.90;;;;;;5033468;28;19924;-68
2022/10/18 11:28:34;;;;;;;;;;;16.60;99.90;;;;;;5031441;28;19924;-70
2022/10/18 11:31:00;;;;;;;;;;;16.60;99.90;;;;;;5033420;28;19917;-71
2022/10/18 11:33:37;;;;;;;;;;;17.60;99.90;;;;;;5032468;28;19928;-69
2022/10/18 11:36:13;;;;;;;;;;;16.70;99.90;;;;;;5033022;28;20402;-68
2022/10/18 11:39:05;;;;;;;;;;;16.50;99.90;;;;;;5032225;28;19968;-68
2022/10/18 11:41:51;;;;;;;;;;;16.20;99.90;;;;;;5031660;28;19967;-69
2022/10/18 11:44:25;;;;;;;;;;;16.10;99.90;;;;;;5028860;28;19928;-68
2022/10/18 11:46:56;;;;;;;;;;;15.70;99.90;;;;;;5051308;28;19920;-68
2022/10/18 11:49:34;;;;;;;;;;;15.70;99.90;;;;;;5051996;28;19917;-68
2022/10/18 11:52:18;;;;;;;;;;;15.60;99.90;;;;;;5051683;28;20453;-68
2022/10/18 11:54:50;;;;;;;;;;;15.80;99.90;;;;;;5034774;28;20437;-68
2022/10/18 11:57:31;;;;;;;;;;;16.10;99.90;;;;;;5052870;28;20428;-68
2022/10/18 12:00:00;;;;;;;;;;;16.50;99.90;;;;;;5051766;28;19942;-68
2022/10/18 12:02:37;;;;;;;;;;;16.30;99.90;;;;;;5052407;28;20345;-68
2022/10/18 12:05:04;;;;;;;;;;;16.40;99.90;;;;;;5051518;28;19944;-68
2022/10/18 12:07:32;;;;;;;;;;;16.20;99.90;;;;;;5051557;28;19967;-69
2022/10/18 12:09:59;;;;;;;;;;;15.90;99.90;;;;;;5041486;28;19921;-68
2022/10/18 12:12:34;;;;;;;;;;;16.00;99.90;;;;;;5031130;28;19976;-69
2022/10/18 12:15:05;;;;;;;;;;;16.20;99.90;;;;;;5032457;28;19921;-69
2022/10/18 12:17:36;;;;;;;;;;;16.20;99.90;;;;;;5032634;28;19921;-69
2022/10/18 12:20:06;;;;;;;;;;;16.30;99.90;;;;;;5044824;28;20472;-69
2022/10/18 12:22:46;;;;;;;;;;;15.80;99.90;;;;;;5051286;28;19999;-68
2022/10/18 12:25:12;;;;;;;;;;;16.00;99.90;;;;;;5051998;28;19964;-69
2022/10/18 12:28:01;;;;;;;;;;;16.10;99.90;;;;;;5051182;28;19917;-68
2022/10/18 12:30:31;;;;;;;;;;;16.30;99.90;;;;;;5051378;28;20323;-69
2022/10/18 12:33:04;;;;;;;;;;;16.50;99.90;;;;;;5037826;28;20271;-68
2022/10/18 12:35:33;;;;;;;;;;;16.80;99.90;;;;;;5028702;28;20260;-68
2022/10/18 12:37:59;;;;;;;;;;;17.00;99.90;;;;;;5032047;28;19928;-69
2022/10/18 12:40:30;;;;;;;;;;;16.60;99.90;;;;;;5030849;28;19936;-69
2022/10/18 12:42:56;;;;;;;;;;;16.90;99.90;;;;;;5030073;28;20320;-69
2022/10/18 12:45:24;;;;;;;;;;;17.00;99.90;;;;;;5031816;28;19916;-69
2022/10/18 12:47:50;;;;;;;;;;;16.80;99.90;;;;;;5030779;28;20393;-70
2022/10/18 12:50:27;;;;;;;;;;;16.30;99.90;;;;;;5030738;28;19974;-69
2022/10/18 12:53:02;;;;;;;;;;;16.50;99.90;;;;;;5032125;28;19917;-68
2022/10/18 12:55:32;;;;;;;;;;;16.60;99.90;;;;;;5051109;28;19978;-68
2022/10/18 12:57:57;;;;;;;;;;;16.60;99.90;;;;;;5051766;28;19990;-68
2022/10/18 13:00:29;;;;;;;;;;;17.40;99.90;;;;;;5050638;28;19916;-69
2022/10/18 13:03:21;;;;;;;;;;;16.70;99.90;;;;;;5049305;28;19960;-69
2022/10/18 13:05:46;;;;;;;;;;;16.60;99.90;;;;;;5049162;28;20298;-70
2022/10/18 13:08:27;;;;;;;;;;;16.50;99.90;;;;;;5050027;28;19924;-71
2022/10/18 13:11:08;;;;;;;;;;;16.60;99.90;;;;;;5034211;28;19917;-70
2022/10/18 13:13:43;;;;;;;;;;;16.40;99.90;;;;;;5037899;28;19947;-70
2022/10/18 13:16:32;;;;;;;;;;;16.40;99.90;;;;;;5051937;28;19916;-69
2022/10/18 13:19:02;;;;;;;;;;;16.30;99.90;;;;;;5030317;28;19921;-69
2022/10/18 13:21:32;;;;;;;;;;;16.40;99.90;;;;;;5035721;28;19920;-69
2022/10/18 13:24:03;;;;;;;;;;;16.60;99.90;;;;;;5051713;28;19936;-69
2022/10/18 13:26:39;;;;;;;;;;;16.70;99.90;;;;;;5051929;28;19923;-69
2022/10/18 13:29:23;;;;;;;;;;;16.70;99.90;;;;;;5050514;28;19917;-69
2022/10/18 13:32:02;;;;;;;;;;;16.60;99.90;;;;;;5050130;28;19942;-69
2022/10/18 13:34:33;;;;;;;;;;;16.60;99.90;;;;;;5051565;28;19921;-69
2022/10/18 13:37:04;;;;;;;;;;;16.40;99.90;;;;;;5034770;28;19921;-69
2022/10/18 13:39:30;;;;;;;;;;;16.50;99.90;;;;;;5030531;28;19917;-69
2022/10/18 13:41:55;;;;;;;;;;;16.20;99.90;;;;;;5031638;28;19921;-69
2022/10/18 13:44:38;;;;;;;;;;;17.50;99.90;;;;;;5030308;28;19978;-69
2022/10/18 13:47:04;;;;;;;;;;;16.30;99.90;;;;;;5013985;28;19917;-69
2022/10/18 13:49:29;;;;;;;;;;;16.70;99.90;;;;;;5037193;28;19924;-69
2022/10/18 13:52:20;;;;;;;;;;;17.60;99.90;;;;;;5052016;28;19917;-69
2022/10/18 13:55:05;;;;;;;;;;;16.30;99.90;;;;;;5054980;28;19927;-69
2022/10/18 13:57:33;;;;;;;;;;;16.40;99.90;;;;;;5055312;28;19921;-70
2022/10/18 14:00:17;;;;;;;;;;;16.30;99.90;;;;;;5055405;28;19917;-70
2022/10/18 14:03:01;;;;;;;;;;;16.40;99.90;;;;;;5053980;28;20007;-69
2022/10/18 14:05:33;;;;;;;;;;;16.20;99.90;;;;;;5047355;28;20375;-70
2022/10/18 14:08:03;;;;;;;;;;;16.20;99.90;;;;;;5054312;28;19925;-70
2022/10/18 14:10:34;;;;;;;;;;;16.30;99.90;;;;;;5053722;28;19978;-70
2022/10/18 14:13:01;;;;;;;;;;;16.40;99.90;;;;;;5056097;28;20413;-70
2022/10/18 14:15:38;;;;;;;;;;;17.80;99.90;;;;;;5053354;28;19968;-71
2022/10/18 14:18:22;;;;;;;;;;;16.50;99.90;;;;;;5045076;28;20409;-70
2022/10/18 14:20:50;;;;;;;;;;;16.50;99.90;;;;;;5034890;28;19917;-70
2022/10/18 14:23:18;;;;;;;;;;;16.60;99.90;;;;;;5034858;28;19921;-70
2022/10/18 14:25:44;;;;;;;;;;;16.30;99.90;;;;;;5034510;28;19917;-69
2022/10/18 14:28:09;;;;;;;;;;;16.80;99.90;;;;;;5033484;28;20413;-69
2022/10/18 14:30:35;;;;;;;;;;;16.40;99.90;;;;;;5042072;28;19978;-69
2022/10/18 14:33:01;;;;;;;;;;;17.10;99.90;;;;;;5045192;28;19917;-71
2022/10/18 14:35:29;;;;;;;;;;;16.10;99.90;;;;;;5053908;28;19917;-70